Time;durP1;ratioP1;P1;durP2;ratioP2;P2;SDS_P1;SDS_P2;PMS_P1;PMS_P2;Temp;Humidity;BMP_temperature;BMP_pressure;BME280_temperature;BME280_humidity;BME280_pressure;Samples;Min_cycle;Max_cycle;Signal;HPM_P1;HPM_P2
2022/07/28 00:01:04;;;;;;;8.52;2.47;;;10.50;99.90;;;;;;6245044;23;20026;-86
2022/07/28 00:03:29;;;;;;;8.85;2.60;;;10.50;99.90;;;;;;6218134;23;20027;-87
2022/07/28 00:05:55;;;;;;;9.75;2.97;;;10.50;99.90;;;;;;6237343;23;20020;-87
2022/07/28 00:08:24;;;;;;;8.68;2.88;;;10.90;99.90;;;;;;6218529;23;20016;-87
2022/07/28 00:10:52;;;;;;;8.15;2.75;;;10.40;99.90;;;;;;6244446;23;20451;-87
2022/07/28 00:13:18;;;;;;;7.93;2.80;;;10.70;99.90;;;;;;6218110;23;20047;-87
2022/07/28 00:15:59;;;;;;;7.90;2.85;;;10.90;99.90;;;;;;6245273;23;20491;-88
2022/07/28 00:18:45;;;;;;;9.70;3.15;;;10.20;99.90;;;;;;6218187;23;20063;-87
2022/07/28 00:21:10;;;;;;;9.05;2.90;;;10.40;99.90;;;;;;6245393;23;20063;-88
2022/07/28 00:23:38;;;;;;;11.93;3.17;;;10.40;99.90;;;;;;6245119;23;20012;-87
2022/07/28 00:26:05;;;;;;;8.52;2.92;;;10.40;99.90;;;;;;6245012;23;20020;-87
2022/07/28 00:28:30;;;;;;;8.50;2.72;;;10.50;99.90;;;;;;6218233;23;20020;-87
2022/07/28 00:30:56;;;;;;;9.20;2.88;;;10.50;99.90;;;;;;6244732;23;20147;-87
2022/07/28 00:33:21;;;;;;;9.30;2.75;;;11.10;99.90;;;;;;6247346;23;20027;-87
2022/07/28 00:35:49;;;;;;;8.07;2.88;;;10.50;99.90;;;;;;6220195;23;20016;-87
2022/07/28 00:38:15;;;;;;;7.80;2.53;;;10.50;99.90;;;;;;6219851;23;20099;-87
2022/07/28 00:43:25;;;;;;;;;;;10.60;99.90;;;;;;6249639;23;20151;-87
2022/07/28 00:45:55;;;;;;;9.13;2.90;;;10.80;99.90;;;;;;6246637;23;20331;-87
2022/07/28 00:48:21;;;;;;;8.90;2.92;;;10.60;99.90;;;;;;6247338;23;20016;-87
2022/07/28 00:50:46;;;;;;;9.50;3.20;;;10.70;99.90;;;;;;6247367;23;20058;-87
2022/07/28 00:53:12;;;;;;;7.90;2.90;;;10.70;99.90;;;;;;6219406;23;20066;-87
2022/07/28 00:55:40;;;;;;;9.93;3.03;;;10.80;99.90;;;;;;6219921;23;20098;-87
2022/07/28 00:58:06;;;;;;;10.65;3.30;;;10.80;99.90;;;;;;6220049;23;20016;-87
2022/07/28 01:00:31;;;;;;;9.02;3.00;;;10.80;99.90;;;;;;6246741;23;20492;-87
2022/07/28 01:02:58;;;;;;;7.95;2.83;;;10.80;99.90;;;;;;6246785;23;20019;-87
2022/07/28 01:05:28;;;;;;;9.25;2.90;;;10.80;99.90;;;;;;6255416;23;20004;-87
2022/07/28 01:08:12;;;;;;;8.65;2.97;;;10.80;99.90;;;;;;6236449;23;20380;-86
2022/07/28 01:11:00;;;;;;;11.20;3.15;;;10.90;99.90;;;;;;6249007;23;20015;-87
2022/07/28 01:13:41;;;;;;;8.82;3.15;;;10.90;99.90;;;;;;6220006;23;20031;-86
2022/07/28 01:16:07;;;;;;;8.50;3.28;;;10.90;99.90;;;;;;6219563;23;20009;-87
2022/07/28 01:18:42;;;;;;;9.25;2.83;;;10.90;99.90;;;;;;6220187;23;20550;-87
2022/07/28 01:21:15;;;;;;;8.70;2.92;;;10.90;99.90;;;;;;6219533;23;20013;-87
2022/07/28 01:24:14;;;;;;;8.38;3.10;;;10.80;99.90;;;;;;6246977;23;20016;-86
2022/07/28 01:26:53;;;;;;;8.70;2.83;;;10.90;99.90;;;;;;6219335;23;20348;-87
2022/07/28 01:29:56;;;;;;;9.13;3.58;;;10.80;99.90;;;;;;6222696;23;20015;-87
2022/07/28 01:32:25;;;;;;;8.82;3.08;;;10.80;99.90;;;;;;6220371;23;20024;-87
2022/07/28 01:35:06;;;;;;;8.05;2.70;;;10.80;99.90;;;;;;6246377;23;20023;-87
2022/07/28 01:37:38;;;;;;;9.65;2.90;;;10.80;99.90;;;;;;6220746;23;20013;-87
2022/07/28 01:40:07;;;;;;;8.68;2.90;;;11.30;99.90;;;;;;6248965;23;20047;-87
2022/07/28 01:42:38;;;;;;;9.77;3.10;;;10.70;99.90;;;;;;6246465;23;20048;-87
2022/07/28 01:45:06;;;;;;;8.50;2.97;;;10.70;99.90;;;;;;6218929;23;20083;-87
2022/07/28 01:47:33;;;;;;;7.95;2.80;;;10.70;99.90;;;;;;6246392;23;20009;-87
2022/07/28 01:50:03;;;;;;;8.23;2.88;;;10.80;99.90;;;;;;6246787;23;20440;-88
2022/07/28 01:52:30;;;;;;;8.80;2.85;;;10.70;99.90;;;;;;6272984;22;20016;-87
2022/07/28 01:54:58;;;;;;;9.90;2.88;;;11.10;99.90;;;;;;6236988;23;20467;-87
2022/07/28 01:57:25;;;;;;;9.82;2.85;;;10.60;99.90;;;;;;6251538;23;20023;-87
2022/07/28 01:59:54;;;;;;;10.10;3.00;;;10.80;99.90;;;;;;6221880;23;20016;-87
2022/07/28 02:02:23;;;;;;;9.82;3.08;;;10.50;99.90;;;;;;6234722;23;20341;-87
2022/07/28 02:04:51;;;;;;;7.72;2.85;;;10.70;99.90;;;;;;6219214;23;20027;-87
2022/07/28 02:07:26;;;;;;;8.77;2.90;;;11.00;99.90;;;;;;6245995;23;20066;-87
2022/07/28 02:09:59;;;;;;;8.98;3.03;;;10.30;99.90;;;;;;6245534;23;20397;-87
2022/07/28 02:12:26;;;;;;;9.68;2.92;;;11.50;99.90;;;;;;6246010;23;20444;-87
2022/07/28 02:15:02;;;;;;;8.40;2.88;;;10.20;99.90;;;;;;6219278;23;20016;-87
2022/07/28 02:17:30;;;;;;;8.93;2.85;;;10.70;99.90;;;;;;6218995;23;20023;-87
2022/07/28 02:20:10;;;;;;;8.63;2.85;;;10.60;99.90;;;;;;6246325;23;20012;-86
2022/07/28 02:22:38;;;;;;;7.65;2.85;;;10.30;99.90;;;;;;6219522;23;20352;-87
2022/07/28 02:25:20;;;;;;;8.85;2.60;;;11.00;99.90;;;;;;6219174;23;20047;-86
2022/07/28 02:28:05;;;;;;;6.90;2.58;;;10.80;99.90;;;;;;6245817;23;20383;-87
2022/07/28 02:30:54;;;;;;;9.88;2.90;;;10.30;99.90;;;;;;6218959;23;20016;-86
2022/07/28 02:33:33;;;;;;;9.50;3.03;;;10.40;99.90;;;;;;6219069;23;20016;-87
2022/07/28 02:36:04;;;;;;;8.07;2.65;;;10.70;99.90;;;;;;6218987;23;20444;-87
2022/07/28 02:38:34;;;;;;;7.45;2.50;;;10.10;99.90;;;;;;6245840;23;20008;-86
2022/07/28 02:41:07;;;;;;;7.72;2.95;;;10.20;99.90;;;;;;6226276;23;20020;-87
2022/07/28 02:43:36;;;;;;;12.80;3.38;;;10.20;99.90;;;;;;6237530;23;20028;-87
2022/07/28 02:46:09;;;;;;;9.25;2.80;;;10.40;99.90;;;;;;6219356;23;20024;-86
2022/07/28 02:48:37;;;;;;;7.80;3.08;;;10.10;99.90;;;;;;6246461;23;20058;-86
2022/07/28 02:51:05;;;;;;;9.82;2.85;;;10.10;99.90;;;;;;6218443;23;20023;-87
2022/07/28 02:53:34;;;;;;;8.90;2.90;;;10.10;99.90;;;;;;6219250;23;20062;-87
2022/07/28 02:56:02;;;;;;;9.23;2.70;;;10.10;99.90;;;;;;6246098;23;20043;-87
2022/07/28 02:58:29;;;;;;;12.68;3.63;;;10.10;99.90;;;;;;6245614;23;20095;-86
2022/07/28 03:00:55;;;;;;;8.32;2.50;;;10.00;99.90;;;;;;6218838;23;20012;-87
2022/07/28 03:03:22;;;;;;;10.13;3.15;;;10.00;99.90;;;;;;6219151;23;20016;-87
2022/07/28 03:05:48;;;;;;;8.43;2.60;;;10.00;99.90;;;;;;6218028;23;20032;-87
2022/07/28 03:08:15;;;;;;;9.23;2.95;;;10.00;99.90;;;;;;6245923;23;20090;-87
2022/07/28 03:10:41;;;;;;;9.32;2.80;;;9.90;99.90;;;;;;6246199;23;20012;-87
2022/07/28 03:13:07;;;;;;;9.43;2.80;;;10.00;99.90;;;;;;6244817;23;20453;-87
2022/07/28 03:15:35;;;;;;;8.13;2.80;;;9.90;99.90;;;;;;6247013;23;20031;-86
2022/07/28 03:18:02;;;;;;;8.35;2.72;;;9.90;99.90;;;;;;6246413;23;20004;-87
2022/07/28 03:20:29;;;;;;;7.97;2.72;;;9.90;99.90;;;;;;6245265;23;20498;-87
2022/07/28 03:22:54;;;;;;;7.75;2.75;;;9.90;99.90;;;;;;6221760;23;20016;-87
2022/07/28 03:25:31;;;;;;;7.55;2.75;;;9.80;99.90;;;;;;6218822;23;20012;-87
2022/07/28 03:27:59;;;;;;;7.30;2.65;;;9.80;99.90;;;;;;6218014;23;20012;-87
2022/07/28 03:30:30;;;;;;;9.50;3.40;;;9.80;99.90;;;;;;6218841;23;20015;-86
2022/07/28 03:32:59;;;;;;;7.70;2.45;;;9.70;99.90;;;;;;6221424;23;20016;-87
2022/07/28 03:35:26;;;;;;;9.90;2.67;;;9.70;99.90;;;;;;6218424;23;20352;-87
2022/07/28 03:38:04;;;;;;;8.82;3.15;;;9.70;99.90;;;;;;6218244;23;20027;-87
2022/07/28 03:40:31;;;;;;;9.25;3.50;;;9.60;99.90;;;;;;6245439;23;20027;-87
2022/07/28 03:43:02;;;;;;;9.02;3.10;;;9.60;99.90;;;;;;6245303;23;20340;-86
2022/07/28 03:45:29;;;;;;;10.50;3.10;;;9.60;99.90;;;;;;6218913;23;20351;-87
2022/07/28 03:47:57;;;;;;;9.40;3.20;;;9.50;99.90;;;;;;6217536;23;20008;-87
2022/07/28 03:50:24;;;;;;;8.52;3.20;;;9.50;99.90;;;;;;6218364;23;20051;-87
2022/07/28 03:52:50;;;;;;;8.73;3.00;;;9.50;99.90;;;;;;6218155;23;20510;-87
2022/07/28 03:55:15;;;;;;;9.20;3.25;;;9.40;99.90;;;;;;6218453;23;20099;-87
2022/07/28 03:57:41;;;;;;;9.00;3.70;;;9.40;99.90;;;;;;6245693;23;20070;-87
2022/07/28 04:00:07;;;;;;;8.18;3.00;;;9.40;99.90;;;;;;6245111;23;20455;-86
2022/07/28 04:02:33;;;;;;;10.13;3.40;;;9.40;99.90;;;;;;6244930;23;20015;-86
2022/07/28 04:04:59;;;;;;;10.15;3.60;;;9.40;99.90;;;;;;6217398;23;20024;-87
2022/07/28 04:07:25;;;;;;;8.98;3.65;;;9.30;99.90;;;;;;6244653;23;20020;-86
2022/07/28 04:09:51;;;;;;;10.90;3.55;;;9.30;99.90;;;;;;6244163;23;20016;-87
2022/07/28 04:12:17;;;;;;;10.10;3.50;;;9.40;99.90;;;;;;6245562;23;20106;-86
2022/07/28 04:14:42;;;;;;;12.32;4.07;;;9.30;99.90;;;;;;6218362;23;20022;-87
2022/07/28 04:17:08;;;;;;;10.68;4.00;;;9.30;99.90;;;;;;6228129;23;20020;-86
2022/07/28 04:19:34;;;;;;;11.68;4.55;;;9.40;99.90;;;;;;6259218;23;20020;-86
2022/07/28 04:22:00;;;;;;;10.75;4.28;;;9.40;99.90;;;;;;6245364;23;20392;-87
2022/07/28 04:24:25;;;;;;;9.45;4.00;;;9.40;99.90;;;;;;6217929;23;20051;-87
2022/07/28 04:26:51;;;;;;;10.77;4.28;;;9.30;99.90;;;;;;6245164;23;20051;-87
2022/07/28 04:29:17;;;;;;;13.05;4.03;;;9.30;99.90;;;;;;6245637;23;20470;-86
2022/07/28 04:31:42;;;;;;;11.63;4.38;;;9.40;99.90;;;;;;6246275;23;20043;-87
2022/07/28 04:34:08;;;;;;;11.02;4.57;;;9.40;99.90;;;;;;6218517;23;20024;-87
2022/07/28 04:36:40;;;;;;;11.07;4.07;;;9.40;99.90;;;;;;6217846;23;20016;-86
2022/07/28 04:39:07;;;;;;;11.77;4.50;;;9.40;99.90;;;;;;6218322;23;20091;-86
2022/07/28 04:41:33;;;;;;;11.27;3.90;;;9.50;99.90;;;;;;6218305;23;20017;-86
2022/07/28 04:43:59;;;;;;;12.70;5.70;;;9.50;99.90;;;;;;6217363;23;20043;-86
2022/07/28 04:46:25;;;;;;;12.27;4.75;;;9.50;99.90;;;;;;6218286;23;20432;-86
2022/07/28 04:48:51;;;;;;;11.52;4.63;;;9.50;99.90;;;;;;6217997;23;20031;-87
2022/07/28 04:51:16;;;;;;;11.13;4.68;;;9.60;99.90;;;;;;6218633;23;20035;-87
2022/07/28 04:53:42;;;;;;;11.32;4.78;;;9.60;99.90;;;;;;6273102;22;20038;-87
2022/07/28 04:56:08;;;;;;;11.30;5.10;;;9.70;99.90;;;;;;6261540;23;20016;-87
2022/07/28 04:58:34;;;;;;;11.55;4.80;;;9.70;99.90;;;;;;6220818;23;20377;-87
2022/07/28 05:00:59;;;;;;;10.88;4.80;;;9.80;99.90;;;;;;6219074;23;20012;-87
2022/07/28 05:03:25;;;;;;;11.35;5.07;;;9.80;99.90;;;;;;6218896;23;20012;-87
2022/07/28 05:05:51;;;;;;;14.32;4.88;;;9.90;99.90;;;;;;6245442;23;20020;-84
2022/07/28 05:08:16;;;;;;;13.48;5.43;;;9.90;99.90;;;;;;6217869;23;20012;-83
2022/07/28 05:10:42;;;;;;;12.60;4.70;;;10.10;99.90;;;;;;6217884;23;20022;-82
2022/07/28 05:13:09;;;;;;;10.02;4.40;;;10.00;99.90;;;;;;6244421;23;20020;-82
2022/07/28 05:15:35;;;;;;;11.95;5.22;;;10.10;99.90;;;;;;6217500;23;20012;-82
2022/07/28 05:18:01;;;;;;;12.23;4.90;;;10.20;99.90;;;;;;6243720;23;20376;-82
2022/07/28 05:20:26;;;;;;;9.98;4.50;;;10.30;99.90;;;;;;6218931;23;20322;-82
2022/07/28 05:22:56;;;;;;;11.30;5.18;;;10.40;99.90;;;;;;6246285;23;20031;-82
2022/07/28 05:25:23;;;;;;;12.68;4.75;;;10.40;99.90;;;;;;6246569;23;20012;-82
2022/07/28 05:27:49;;;;;;;10.90;4.38;;;10.60;99.90;;;;;;6245425;23;20016;-82
2022/07/28 05:30:19;;;;;;;11.00;4.53;;;10.70;99.90;;;;;;6246456;23;20008;-82
2022/07/28 05:32:44;;;;;;;11.32;4.55;;;10.80;99.90;;;;;;6218488;23;20016;-83
2022/07/28 05:35:10;;;;;;;12.50;4.28;;;11.30;99.90;;;;;;6219846;23;20344;-83
2022/07/28 05:37:36;;;;;;;9.55;3.92;;;11.10;99.90;;;;;;6219413;23;20403;-83
2022/07/28 05:40:08;;;;;;;10.02;4.70;;;11.20;99.90;;;;;;6245440;23;20470;-83
2022/07/28 05:42:52;;;;;;;10.88;3.45;;;11.30;99.90;;;;;;6216318;23;20016;-84
2022/07/28 05:45:18;;;;;;;8.55;3.47;;;12.00;99.90;;;;;;6246404;23;20020;-83
2022/07/28 05:48:08;;;;;;;11.63;3.35;;;12.50;99.90;;;;;;6220209;23;20023;-86
2022/07/28 05:50:34;;;;;;;9.88;3.65;;;11.70;99.90;;;;;;6219673;23;20027;-85
2022/07/28 05:52:59;;;;;;;9.30;2.70;;;11.80;99.90;;;;;;6223911;23;20020;-85
2022/07/28 05:55:44;;;;;;;7.72;2.33;;;12.60;99.90;;;;;;6245905;23;20073;-86
2022/07/28 05:58:09;;;;;;;;;;;12.10;99.90;;;;;;6220031;23;20042;-86
2022/07/28 06:00:35;;;;;;;10.70;2.80;;;12.90;99.90;;;;;;6208573;23;19915;-86
2022/07/28 06:03:18;;;;;;;8.40;2.53;;;12.60;99.90;;;;;;6218077;23;20070;-86
2022/07/28 06:05:44;;;;;;;7.43;2.30;;;13.30;99.90;;;;;;6217560;23;20336;-86
2022/07/28 06:08:10;;;;;;;9.27;2.28;;;12.50;99.90;;;;;;6218371;23;20305;-86
2022/07/28 06:10:58;;;;;;;8.10;2.28;;;13.10;99.90;;;;;;6218992;23;20027;-86
2022/07/28 06:13:24;;;;;;;8.68;2.30;;;12.70;99.90;;;;;;6219132;23;20024;-85
2022/07/28 06:15:51;;;;;;;9.18;2.50;;;13.30;99.90;;;;;;6244996;23;20016;-84
2022/07/28 06:18:49;;;;;;;8.38;2.25;;;13.20;99.90;;;;;;6218915;23;20024;-83
2022/07/28 06:21:31;;;;;;;8.63;2.13;;;13.00;99.90;;;;;;6121313;23;20032;-83
2022/07/28 06:23:57;;;;;;;10.43;2.30;;;12.90;99.90;;;;;;6126420;23;20052;-84
2022/07/28 06:26:23;;;;;;;7.65;2.28;;;13.20;99.90;;;;;;6219153;23;20012;-88
2022/07/28 06:29:03;;;;;;;5.68;1.90;;;13.70;99.90;;;;;;6245844;23;20053;-87
2022/07/28 06:31:29;;;;;;;5.95;2.20;;;14.10;99.90;;;;;;6246487;23;20020;-82
2022/07/28 06:33:54;;;;;;;8.35;2.20;;;14.30;99.90;;;;;;6218510;23;20020;-86
2022/07/28 06:36:35;;;;;;;7.97;1.77;;;14.40;99.90;;;;;;6218714;23;20015;-84
2022/07/28 06:39:01;;;;;;;6.63;1.73;;;14.50;99.90;;;;;;6218793;23;20020;-84
2022/07/28 06:41:43;;;;;;;7.10;2.17;;;14.30;99.90;;;;;;6246363;23;20091;-84
2022/07/28 06:44:28;;;;;;;6.78;1.75;;;14.90;99.90;;;;;;6219000;23;20099;-83
2022/07/28 06:46:53;;;;;;;9.45;2.10;;;14.80;99.90;;;;;;6244926;23;20020;-85
2022/07/28 06:49:19;;;;;;;7.00;2.03;;;15.00;99.90;;;;;;6219089;23;20008;-85
2022/07/28 06:51:44;;;;;;;6.40;1.92;;;14.60;99.90;;;;;;6217925;23;20019;-82
2022/07/28 06:54:28;;;;;;;9.05;2.03;;;15.10;99.90;;;;;;6218761;23;20042;-82
2022/07/28 06:56:54;;;;;;;;;;;15.20;99.90;;;;;;6246562;23;20016;-83
2022/07/28 06:59:19;;;;;;;9.38;1.98;;;15.80;99.90;;;;;;6218141;23;19942;-81
2022/07/28 07:01:45;;;;;;;4.78;1.70;;;15.70;99.90;;;;;;6218629;23;20020;-82
2022/07/28 07:04:27;;;;;;;8.77;2.20;;;16.00;99.90;;;;;;6193367;23;20023;-82
2022/07/28 07:06:53;;;;;;;7.55;2.40;;;16.10;99.90;;;;;;6245530;23;20020;-82
2022/07/28 07:09:18;;;;;;;9.05;1.90;;;15.10;99.90;;;;;;6219102;23;20012;-83
2022/07/28 07:11:59;;;;;;;5.82;1.52;;;15.40;99.90;;;;;;6217555;23;20016;-83
2022/07/28 07:14:25;;;;;;;5.45;1.70;;;15.30;99.90;;;;;;6218393;23;20035;-82
2022/07/28 07:16:52;;;;;;;5.63;1.73;;;16.30;99.90;;;;;;6218501;23;20016;-81
2022/07/28 07:19:33;;;;;;;6.70;1.83;;;16.20;99.90;;;;;;6218099;23;20020;-81
2022/07/28 07:21:59;;;;;;;6.63;1.70;;;16.40;99.90;;;;;;6245293;23;20016;-81
2022/07/28 07:24:25;;;;;;;9.00;1.70;;;16.20;99.90;;;;;;6219125;23;20504;-81
2022/07/28 07:26:50;;;;;;;8.10;1.90;;;16.20;99.90;;;;;;6247001;23;20020;-81
2022/07/28 07:29:31;;;;;;;6.50;1.70;;;16.70;99.90;;;;;;6217858;23;20332;-81
2022/07/28 07:31:57;;;;;;;9.43;1.70;;;17.00;99.90;;;;;;6218335;23;20012;-82
2022/07/28 07:34:23;;;;;;;9.93;1.95;;;16.70;99.90;;;;;;6218237;23;20022;-81
2022/07/28 07:37:05;;;;;;;7.60;1.60;;;16.70;99.90;;;;;;6218149;23;20020;-81
2022/07/28 07:39:31;;;;;;;5.53;1.52;;;16.30;99.90;;;;;;6245129;23;20016;-82
2022/07/28 07:41:56;;;;;;;8.65;1.60;;;17.20;99.90;;;;;;6217958;23;20020;-82
2022/07/28 07:44:40;;;;;;;7.93;1.80;;;17.20;99.90;;;;;;6218019;23;20012;-81
2022/07/28 07:47:09;;;;;;;;;;;15.70;99.90;;;;;;6245342;23;20016;-82
2022/07/28 07:49:53;;;;;;;5.03;1.50;;;16.60;99.90;;;;;;6218379;23;19931;-81
2022/07/28 07:52:18;;;;;;;7.40;1.73;;;17.00;99.90;;;;;;6212807;23;20460;-81
2022/07/28 07:54:44;;;;;;;6.15;1.70;;;17.80;99.90;;;;;;6261696;22;20007;-82
2022/07/28 07:57:28;;;;;;;5.82;1.70;;;16.90;99.90;;;;;;6268263;22;20008;-81
2022/07/28 07:59:54;;;;;;;5.32;1.70;;;17.10;99.90;;;;;;6217814;23;20022;-81
2022/07/28 08:02:32;;;;;;;6.82;1.70;;;17.80;99.90;;;;;;6217793;23;20395;-81
2022/07/28 08:04:57;;;;;;;8.35;1.85;;;18.30;99.90;;;;;;6217801;23;20023;-81
2022/07/28 08:07:23;;;;;;;5.38;1.70;;;17.90;99.90;;;;;;6217636;23;20483;-83
2022/07/28 08:09:58;;;;;;;6.53;1.90;;;17.50;99.90;;;;;;6218500;23;20023;-82
2022/07/28 08:12:23;;;;;;;9.63;1.88;;;17.50;99.90;;;;;;6245745;23;20016;-83
2022/07/28 08:15:02;;;;;;;8.43;2.10;;;18.20;99.90;;;;;;6244157;23;20019;-81
2022/07/28 08:17:27;;;;;;;8.75;1.83;;;17.50;99.90;;;;;;6217367;23;20064;-81
2022/07/28 08:20:12;;;;;;;5.38;1.77;;;17.70;99.90;;;;;;6217559;23;20050;-82
2022/07/28 08:23:05;;;;;;;6.10;1.92;;;17.50;99.90;;;;;;6244174;23;20440;-80
2022/07/28 08:25:35;;;;;;;7.38;2.00;;;17.10;99.90;;;;;;6217922;23;20058;-81
2022/07/28 08:28:21;;;;;;;6.70;1.92;;;18.10;99.90;;;;;;6245073;23;20012;-81
2022/07/28 08:30:46;;;;;;;8.82;2.05;;;16.90;99.90;;;;;;6126848;23;20025;-83
2022/07/28 08:33:12;;;;;;;7.50;2.10;;;17.20;99.90;;;;;;6217725;23;20016;-81
2022/07/28 08:35:38;;;;;;;5.55;1.60;;;17.70;99.90;;;;;;6217680;23;20016;-81
2022/07/28 08:38:19;;;;;;;6.57;2.03;;;18.20;99.90;;;;;;6216030;23;20012;-81
2022/07/28 08:41:05;;;;;;;4.50;1.50;;;18.70;99.90;;;;;;6245008;23;20192;-82
2022/07/28 08:43:54;;;;;;;6.25;1.60;;;18.00;99.90;;;;;;6244524;23;20032;-82
2022/07/28 08:46:21;;;;;;;7.88;1.73;;;18.00;99.90;;;;;;6217472;23;20019;-82
2022/07/28 08:48:49;;;;;;;9.23;1.83;;;18.30;99.90;;;;;;6244826;23;20012;-81
2022/07/28 08:52:06;;;;;;;6.40;1.88;;;19.10;99.90;;;;;;6242362;23;20012;-81
2022/07/28 08:54:31;;;;;;;5.43;1.45;;;18.70;99.90;;;;;;6189402;23;20028;-81
2022/07/28 08:57:19;;;;;;;6.13;1.65;;;18.90;99.90;;;;;;6188934;23;20013;-81
2022/07/28 08:59:47;;;;;;;6.15;1.60;;;19.60;99.90;;;;;;6215592;23;20329;-82
2022/07/28 09:02:35;;;;;;;7.15;1.70;;;19.20;99.90;;;;;;6190088;23;20454;-82
2022/07/28 09:05:20;;;;;;;9.52;2.55;;;19.70;99.90;;;;;;6188899;23;20471;-82
2022/07/28 09:07:51;;;;;;;6.07;1.60;;;19.80;99.90;;;;;;6216258;23;20008;-82
2022/07/28 09:10:37;;;;;;;7.40;1.70;;;19.60;99.90;;;;;;6189954;23;20078;-83
2022/07/28 09:13:03;;;;;;;6.80;1.80;;;19.00;99.90;;;;;;6188957;23;20444;-82
2022/07/28 09:15:29;;;;;;;6.70;1.70;;;19.10;99.90;;;;;;6189438;23;20024;-83
2022/07/28 09:18:16;;;;;;;9.57;1.90;;;19.50;99.90;;;;;;6215281;23;20012;-83
2022/07/28 09:20:43;;;;;;;6.78;1.60;;;19.30;99.90;;;;;;6189381;23;20020;-82
2022/07/28 09:23:18;;;;;;;4.47;1.40;;;19.80;99.90;;;;;;6216352;23;20444;-82
2022/07/28 09:25:45;;;;;;;6.72;1.60;;;19.50;99.90;;;;;;6215517;23;20063;-82
2022/07/28 09:28:16;;;;;;;6.43;1.50;;;20.10;99.90;;;;;;6189693;23;20030;-82
2022/07/28 09:31:05;;;;;;;5.13;1.50;;;19.50;99.90;;;;;;6188394;23;20016;-82
2022/07/28 09:33:31;;;;;;;5.28;1.60;;;19.00;99.90;;;;;;6188761;23;20017;-82
2022/07/28 09:36:14;;;;;;;4.95;1.50;;;19.90;99.90;;;;;;6188983;23;20016;-82
2022/07/28 09:38:40;;;;;;;5.20;1.70;;;20.20;99.90;;;;;;6216613;23;20066;-82
2022/07/28 09:41:24;;;;;;;7.00;1.88;;;19.70;99.90;;;;;;6215118;23;20084;-82
2022/07/28 09:43:51;;;;;;;5.22;1.65;;;19.60;99.90;;;;;;6189319;23;20440;-82
2022/07/28 09:46:26;;;;;;;4.68;1.60;;;19.90;99.90;;;;;;6188839;23;20013;-82
2022/07/28 09:48:57;;;;;;;5.90;1.50;;;19.40;99.90;;;;;;6188906;23;20022;-82
2022/07/28 09:51:25;;;;;;;4.13;1.52;;;19.60;99.90;;;;;;6216488;23;20017;-82
2022/07/28 09:53:52;;;;;;;4.93;1.50;;;19.70;99.90;;;;;;6188194;23;20040;-82
2022/07/28 09:56:17;;;;;;;3.47;1.50;;;20.10;99.90;;;;;;6189348;23;20020;-82
2022/07/28 09:58:55;;;;;;;4.72;1.42;;;20.40;99.90;;;;;;6215646;23;20020;-82
2022/07/28 10:01:21;;;;;;;5.90;1.52;;;21.00;99.90;;;;;;6188514;23;20048;-82
2022/07/28 10:03:57;;;;;;;4.30;1.60;;;20.70;99.90;;;;;;6215298;23;20023;-82
2022/07/28 10:06:33;;;;;;;6.15;1.60;;;21.00;99.90;;;;;;6188446;23;20453;-82
2022/07/28 10:09:01;;;;;;;4.75;1.50;;;21.30;99.90;;;;;;6215072;23;20008;-82
2022/07/28 10:11:28;;;;;;;5.10;1.50;;;21.60;99.90;;;;;;6186203;23;20048;-82
2022/07/28 10:14:01;;;;;;;3.35;1.42;;;21.30;99.90;;;;;;6185476;23;20392;-81
2022/07/28 10:16:33;;;;;;;8.20;2.00;;;21.10;99.80;;;;;;6215013;23;20069;-82
2022/07/28 10:19:00;;;;;;;5.03;1.73;;;21.10;99.90;;;;;;6215646;23;20017;-82
2022/07/28 10:21:29;;;;;;;8.63;2.50;;;20.80;99.90;;;;;;6214288;23;20029;-82
2022/07/28 10:24:03;;;;;;;6.00;1.52;;;20.80;99.80;;;;;;6185610;23;20024;-82
2022/07/28 10:26:37;;;;;;;7.22;1.70;;;20.60;98.90;;;;;;6215401;23;20016;-83
2022/07/28 10:29:08;;;;;;;4.78;1.52;;;20.50;98.80;;;;;;6214619;23;20021;-83
2022/07/28 10:31:53;;;;;;;5.32;1.48;;;20.80;99.50;;;;;;6216558;23;20030;-83
2022/07/28 10:34:27;;;;;;;5.03;1.60;;;21.00;99.30;;;;;;6188251;23;20021;-83
2022/07/28 10:37:01;;;;;;;7.63;1.77;;;21.70;97.50;;;;;;6187469;23;20017;-82
2022/07/28 10:39:36;;;;;;;4.93;1.42;;;21.50;98.40;;;;;;6188415;23;20020;-83
2022/07/28 10:42:02;;;;;;;4.47;1.60;;;21.40;98.30;;;;;;6188225;23;20013;-81
2022/07/28 10:44:30;;;;;;;6.28;1.60;;;21.70;98.30;;;;;;6187951;23;20031;-82
2022/07/28 10:46:56;;;;;;;5.20;1.60;;;22.10;98.10;;;;;;6187449;23;20016;-82
2022/07/28 10:49:22;;;;;;;5.90;1.70;;;22.50;97.90;;;;;;6214472;23;20390;-82
2022/07/28 10:51:48;;;;;;;4.80;1.50;;;22.70;97.00;;;;;;6219640;23;20012;-82
2022/07/28 10:54:24;;;;;;;7.30;1.50;;;22.90;96.50;;;;;;6218281;23;20095;-82
2022/07/28 10:56:56;;;;;;;6.80;1.63;;;22.90;94.80;;;;;;6252573;23;20016;-80
2022/07/28 10:59:50;;;;;;;3.35;1.55;;;23.10;94.80;;;;;;6243428;23;20016;-81
2022/07/28 11:02:41;;;;;;;6.32;1.50;;;23.40;94.70;;;;;;6219449;23;20016;-82
2022/07/28 11:05:37;;;;;;;4.43;1.42;;;23.40;92.90;;;;;;6245009;23;20374;-81
2022/07/28 11:08:03;;;;;;;6.22;1.58;;;23.40;94.20;;;;;;6218464;23;20016;-81
2022/07/28 11:10:41;;;;;;;4.70;1.55;;;23.50;93.90;;;;;;6217710;23;20022;-81
2022/07/28 11:13:20;;;;;;;4.75;1.48;;;23.40;93.70;;;;;;6218214;23;20044;-82
2022/07/28 11:15:46;;;;;;;5.63;1.50;;;23.30;93.50;;;;;;6218387;23;20038;-82
2022/07/28 11:18:12;;;;;;;6.10;1.52;;;23.00;93.10;;;;;;6218069;23;20008;-81
2022/07/28 11:20:50;;;;;;;4.88;1.70;;;23.10;93.20;;;;;;6218263;23;20466;-82
2022/07/28 11:23:39;;;;;;;5.07;1.45;;;23.40;92.40;;;;;;6218553;23;20353;-82
2022/07/28 11:26:20;;;;;;;6.18;1.50;;;23.10;91.60;;;;;;6217460;23;20012;-82
2022/07/28 11:29:13;;;;;;;9.90;1.70;;;23.30;92.30;;;;;;6245186;23;20016;-81
2022/07/28 11:31:45;;;;;;;7.28;1.85;;;23.50;91.90;;;;;;6244832;23;20023;-82
2022/07/28 11:34:22;;;;;;;7.47;1.85;;;23.90;92.80;;;;;;6218301;23;20024;-82
2022/07/28 11:37:02;;;;;;;4.68;1.52;;;23.70;91.50;;;;;;6244804;23;20538;-82
2022/07/28 11:39:39;;;;;;;10.20;1.92;;;23.10;91.40;;;;;;6217826;23;20020;-81
2022/07/28 11:42:24;;;;;;;4.15;1.40;;;22.60;91.90;;;;;;6245149;23;20008;-81
2022/07/28 11:44:50;;;;;;;3.40;1.33;;;22.30;91.90;;;;;;6218290;23;20016;-81
2022/07/28 11:47:24;;;;;;;3.97;1.40;;;22.50;92.00;;;;;;6217767;23;20020;-81
2022/07/28 11:50:12;;;;;;;3.95;1.60;;;22.80;91.00;;;;;;6217961;23;20016;-81
2022/07/28 11:52:39;;;;;;;4.82;1.60;;;23.30;91.00;;;;;;6244712;23;20378;-82
2022/07/28 11:55:05;;;;;;;7.25;1.60;;;23.60;91.60;;;;;;6217839;23;20059;-82
2022/07/28 11:57:39;;;;;;;3.25;1.40;;;23.90;91.60;;;;;;6218715;23;20070;-82
2022/07/28 12:00:06;;;;;;;5.28;1.70;;;24.10;91.50;;;;;;6244118;23;20313;-81
2022/07/28 12:02:33;;;;;;;4.18;1.40;;;24.20;90.90;;;;;;6217563;23;20047;-83
2022/07/28 12:05:10;;;;;;;4.25;1.30;;;24.50;90.80;;;;;;6221381;23;20070;-82
2022/07/28 12:07:38;;;;;;;4.05;1.30;;;24.70;90.30;;;;;;6217340;23;20050;-82
2022/07/28 12:10:29;;;;;;;4.45;1.52;;;24.90;89.90;;;;;;6217367;23;20023;-82
2022/07/28 12:13:01;;;;;;;5.63;1.58;;;24.70;84.80;;;;;;6244558;23;20020;-81
2022/07/28 12:15:27;;;;;;;4.22;1.50;;;25.00;87.90;;;;;;6243380;23;20016;-82
2022/07/28 12:17:53;;;;;;;4.45;1.50;;;24.90;88.00;;;;;;6216843;23;20345;-82
2022/07/28 12:20:19;;;;;;;6.97;1.60;;;24.80;88.20;;;;;;6217790;23;20074;-82
2022/07/28 12:23:14;;;;;;;6.50;1.67;;;25.00;89.60;;;;;;6216624;23;20227;-82
2022/07/28 12:25:45;;;;;;;4.88;1.60;;;25.20;86.80;;;;;;6218934;23;20016;-82
2022/07/28 12:28:31;;;;;;;6.40;1.67;;;25.20;88.90;;;;;;6241568;23;20063;-82
2022/07/28 12:31:26;;;;;;;5.03;1.50;;;24.80;86.60;;;;;;6219237;23;20050;-82
2022/07/28 12:33:51;;;;;;;4.97;1.63;;;24.20;86.40;;;;;;6246649;23;20100;-82
2022/07/28 12:36:37;;;;;;;3.78;1.50;;;24.00;89.10;;;;;;6219145;23;20048;-83
2022/07/28 12:39:04;;;;;;;5.13;1.48;;;24.40;86.60;;;;;;6246697;23;20026;-83
2022/07/28 12:42:04;;;;;;;6.55;1.60;;;23.60;88.60;;;;;;6246770;23;20095;-82
2022/07/28 12:44:33;;;;;;;4.95;1.60;;;23.30;87.80;;;;;;6236339;23;20020;-81
2022/07/28 12:46:59;;;;;;;4.25;1.52;;;23.50;89.50;;;;;;6246282;23;20062;-81
2022/07/28 12:49:25;;;;;;;3.83;1.40;;;24.00;89.30;;;;;;6218144;23;20016;-81
2022/07/28 12:51:51;;;;;;;8.02;1.60;;;24.50;89.20;;;;;;6246236;23;20039;-82
2022/07/28 12:54:16;;;;;;;6.75;1.60;;;24.40;89.00;;;;;;6246320;23;20020;-82
2022/07/28 12:56:49;;;;;;;4.78;1.40;;;24.10;89.00;;;;;;6216968;23;20436;-82
2022/07/28 12:59:18;;;;;;;6.72;1.70;;;23.70;89.10;;;;;;6219438;23;20095;-82
2022/07/28 13:01:50;;;;;;;4.28;1.58;;;23.60;89.50;;;;;;6246123;23;20008;-82
2022/07/28 13:04:36;;;;;;;5.53;1.70;;;23.70;89.50;;;;;;6219698;23;20016;-83
2022/07/28 13:07:08;;;;;;;5.38;1.73;;;23.30;88.90;;;;;;6246940;23;20070;-83
2022/07/28 13:09:45;;;;;;;6.20;1.60;;;23.20;88.90;;;;;;6220256;23;20023;-83
2022/07/28 13:12:34;;;;;;;4.97;1.70;;;23.30;89.10;;;;;;6219501;23;20027;-83
2022/07/28 13:15:09;;;;;;;4.30;1.55;;;23.50;89.70;;;;;;6219836;23;20020;-83